CheckWX is a tool to help pilots better visualize weather data.  It is not intended as a substitute for an official pre-flight weather briefing.

20:28:55 UTC

LTAG METAR
İncirlik Air Base Airport
Adana, Turkey
Current

39 mins ago

LTAG 081950Z 00000KT 9999 FEW020CB BKN030 15/15 Q1014 BECMG VRB12KT
Observed
Apr-8 @ 19:50 UTC
Visibility
10,000+ meters
Flight Rules
MVFR
Cloud Levels
  • Few at 2,000' AGL
  • Broken at 3,000' AGL
Temperature
15°C / 59°F
Dewpoint
15°C / 59°F
Humidity
100%
Altimeter
29.94" Hg
Pressure
1013.92 hPa
Previous

1 hour ago

LTAG 081920Z 15004KT 9999 FEW020CB BKN030 16/15 Q1013 TEMPO TL2000 -TSRA
Observed
Apr-8 @ 19:20 UTC
Wind
  • 150° at 4 KTS
Visibility
10,000+ meters
Flight Rules
MVFR
Cloud Levels
  • Few at 2,000' AGL
  • Broken at 3,000' AGL
Temperature
16°C / 61°F
Dewpoint
15°C / 59°F
Humidity
94%
Altimeter
29.91" Hg
Pressure
1012.92 hPa
Previous

2 hours ago

LTAG 081850Z 17003KT 9999 FEW020CB BKN030 16/15 Q1013 TEMPO TL2000 -TSRA
Observed
Apr-8 @ 18:50 UTC
Wind
  • 170° at 3 KTS
Visibility
10,000+ meters
Flight Rules
MVFR
Cloud Levels
  • Few at 2,000' AGL
  • Broken at 3,000' AGL
Temperature
16°C / 61°F
Dewpoint
15°C / 59°F
Humidity
94%
Altimeter
29.91" Hg
Pressure
1012.92 hPa